Terminal Aerodrome Forecast
Issued by NWS Charleston, WV

Current Version | Previous Version | Graphics & Text | Print | Product List | Glossary Off
Versions: 1 2 3 4 5 6 7 8 9 10 11 12 13 14 15 16 17 18 19 20 21 22 23 24

636
FTUS41 KRLX 211550 AAB
TAFCRW
TAF AMD
KCRW 211550Z 2116/2212 24011KT P6SM -SHRA VCTS BKN050CB
      TEMPO 2116/2117 28014G32KT 3SM TSRA BKN025CB
     FM212000 VRB02KT P6SM BKN100
     FM220300 00000KT P6SM SCT100=

USA.gov is the U.S. government's official web portal to all federal, state and local government web resources and services.